Time;durP1;ratioP1;P1;durP2;ratioP2;P2;SDS_P1;SDS_P2;PMS_P1;PMS_P2;Temp;Humidity;BMP_temperature;BMP_pressure;BME280_temperature;BME280_humidity;BME280_pressure;Samples;Min_cycle;Max_cycle;Signal;HPM_P1;HPM_P2
2022/07/01 00:07:46;;;;;;;5.83;3.77;;;22.40;85.80;;;;;;21086336;28;20225;-72
2022/07/01 00:17:49;;;;;;;8.43;3.40;;;21.90;88.50;;;;;;21093121;28;20237;-73
2022/07/01 00:27:50;;;;;;;5.30;2.90;;;21.60;90.20;;;;;;21092049;28;20206;-75
2022/07/01 00:37:52;;;;;;;3.47;2.73;;;21.40;91.00;;;;;;21091792;28;20232;-72
2022/07/01 00:47:54;;;;;;;9.90;2.57;;;21.00;91.90;;;;;;21091208;28;20239;-73
2022/07/01 00:57:56;;;;;;;3.03;2.40;;;20.70;92.70;;;;;;21089496;28;20244;-72
2022/07/01 01:07:58;;;;;;;4.97;2.10;;;20.70;93.00;;;;;;21088797;28;20575;-72
2022/07/01 01:18:00;;;;;;;2.90;2.10;;;20.30;92.60;;;;;;21088707;28;20244;-78
2022/07/01 01:28:02;;;;;;;2.30;1.70;;;20.30;93.00;;;;;;21088236;28;20229;-73
2022/07/01 01:38:03;;;;;;;5.30;1.70;;;20.40;92.90;;;;;;21087069;28;20241;-73
2022/07/01 01:48:05;;;;;;;1.57;1.27;;;20.50;92.60;;;;;;21086202;28;20234;-74
2022/07/01 01:58:07;;;;;;;3.00;1.20;;;20.00;92.30;;;;;;21101257;28;20228;-72
2022/07/01 02:08:08;;;;;;;1.73;1.17;;;19.70;92.30;;;;;;21087294;28;20208;-72
2022/07/01 02:18:10;;;;;;;2.03;1.10;;;19.60;92.40;;;;;;21084284;28;20231;-72
2022/07/01 02:28:12;;;;;;;2.73;0.93;;;19.60;92.30;;;;;;21082243;28;20205;-73
2022/07/01 02:38:14;;;;;;;2.77;1.50;;;19.70;92.50;;;;;;21082085;28;20236;-74
2022/07/01 02:48:17;;;;;;;3.10;2.70;;;19.50;92.60;;;;;;21081628;28;20241;-73
2022/07/01 02:58:18;;;;;;;4.93;1.47;;;19.40;93.50;;;;;;21063151;28;20239;-72
2022/07/01 03:08:20;;;;;;;3.00;1.13;;;19.10;94.10;;;;;;21078314;28;20214;-72
2022/07/01 03:18:22;;;;;;;3.00;1.63;;;18.70;94.40;;;;;;21079160;28;20235;-72
2022/07/01 03:28:23;;;;;;;2.50;1.00;;;18.40;95.40;;;;;;21078945;28;20202;-74
2022/07/01 03:38:25;;;;;;;1.70;1.03;;;18.40;95.90;;;;;;21080911;28;20759;-73
2022/07/01 03:48:27;;;;;;;1.30;1.00;;;18.50;96.10;;;;;;21096131;28;20239;-73
2022/07/01 03:58:28;;;;;;;3.40;1.17;;;18.60;96.30;;;;;;21094404;28;20239;-73
2022/07/01 04:08:30;;;;;;;3.90;1.10;;;18.70;96.50;;;;;;21093836;28;20207;-72
2022/07/01 04:18:33;;;;;;;3.93;2.00;;;18.60;96.70;;;;;;21093677;28;20242;-73
2022/07/01 04:28:35;;;;;;;1.33;1.10;;;18.40;97.10;;;;;;21090758;28;20683;-73
2022/07/01 04:38:37;;;;;;;1.33;1.00;;;18.60;97.60;;;;;;21091237;28;20231;-71
2022/07/01 04:48:39;;;;;;;1.77;1.30;;;18.70;97.70;;;;;;21090955;28;20246;-75
2022/07/01 04:58:41;;;;;;;2.47;1.27;;;18.80;97.60;;;;;;21090080;28;20239;-72
2022/07/01 05:08:43;;;;;;;5.60;1.70;;;18.80;97.40;;;;;;21088933;28;20204;-76
2022/07/01 05:29:05;;;;;;;14.17;2.93;;;18.80;97.00;;;;;;21088368;28;20611;-70
2022/07/01 05:39:08;;;;;;;2.90;1.57;;;18.70;96.70;;;;;;21052517;28;20237;-70
2022/07/01 05:49:11;;;;;;;7.80;1.60;;;18.60;96.80;;;;;;21086282;28;20235;-69
2022/07/01 05:59:18;;;;;;;3.13;1.30;;;18.60;97.00;;;;;;21084996;28;20303;-70
2022/07/01 06:09:20;;;;;;;3.30;1.43;;;18.50;96.90;;;;;;21081418;28;20211;-72
2022/07/01 06:19:22;;;;;;;2.70;1.20;;;18.50;96.80;;;;;;21082293;28;20239;-72
2022/07/01 06:29:24;;;;;;;12.07;3.57;;;18.30;97.00;;;;;;21082929;28;20297;-74
2022/07/01 06:39:27;;;;;;;6.40;1.50;;;18.50;96.60;;;;;;21081540;28;20230;-72
2022/07/01 06:49:28;;;;;;;2.03;1.37;;;18.50;96.80;;;;;;21081139;28;20210;-68
2022/07/01 06:59:31;;;;;;;1.60;1.50;;;18.50;96.60;;;;;;21080736;28;20230;-71
2022/07/01 07:09:32;;;;;;;2.63;1.90;;;18.60;96.10;;;;;;21080027;28;20206;-75
2022/07/01 07:19:34;;;;;;;3.27;2.60;;;18.70;95.90;;;;;;21097052;28;20235;-67
2022/07/01 07:29:36;;;;;;;5.77;2.37;;;18.50;96.10;;;;;;21086735;28;20221;-68
2022/07/01 07:39:37;;;;;;;1.73;1.30;;;18.20;96.20;;;;;;21080332;28;20235;-69
2022/07/01 07:49:40;;;;;;;2.13;1.30;;;17.90;96.30;;;;;;21080154;28;20228;-68
2022/07/01 07:59:42;;;;;;;2.07;1.70;;;17.60;96.70;;;;;;21081297;28;20233;-78
2022/07/01 08:09:47;;;;;;;6.60;1.80;;;17.40;97.50;;;;;;21078647;28;20212;-72
2022/07/01 08:19:50;;;;;;;3.40;1.57;;;17.30;96.90;;;;;;21077100;28;20234;-66
2022/07/01 08:29:52;;;;;;;3.30;1.30;;;17.40;97.30;;;;;;21087633;28;20230;-68
2022/07/01 08:39:53;;;;;;;4.40;1.60;;;17.60;97.30;;;;;;21090603;28;20294;-71
2022/07/01 08:49:55;;;;;;;4.17;1.17;;;17.80;97.60;;;;;;21091325;28;20225;-71
2022/07/01 09:00:07;;;;;;;2.80;2.00;;;17.90;97.10;;;;;;21089901;28;20761;-61
2022/07/01 09:10:18;;;;;;;6.63;1.50;;;18.00;97.10;;;;;;21088478;28;20222;-64
2022/07/01 09:20:25;;;;;;;1.83;1.30;;;18.10;96.80;;;;;;21088874;28;20251;-67
2022/07/01 09:30:27;;;;;;;2.03;1.37;;;18.20;97.10;;;;;;21086435;28;20217;-65
2022/07/01 09:40:49;;;;;;;4.17;1.57;;;18.10;96.80;;;;;;21068202;28;20241;-67
2022/07/01 09:50:51;;;;;;;3.00;1.40;;;18.00;96.70;;;;;;21089173;28;20700;-66
2022/07/01 10:00:55;;;;;;;2.13;1.40;;;17.90;96.80;;;;;;21086765;28;20237;-69
2022/07/01 10:11:41;;;;;;;1.93;1.40;;;17.90;96.70;;;;;;21084472;28;20203;-66
2022/07/01 10:21:42;;;;;;;6.20;1.77;;;18.00;97.10;;;;;;21083979;28;20234;-69
2022/07/01 10:31:44;;;;;;;1.30;1.20;;;18.10;97.00;;;;;;21082882;28;20269;-67
2022/07/01 10:41:52;;;;;;;5.23;2.03;;;18.20;96.90;;;;;;21081700;28;20241;-68
2022/07/01 10:52:15;;;;;;;2.20;1.60;;;18.00;96.40;;;;;;21081555;28;20541;-70
2022/07/01 11:02:26;;;;;;;1.50;1.30;;;18.00;96.70;;;;;;21079338;28;20266;-66
2022/07/01 11:12:29;;;;;;;3.83;1.70;;;18.10;96.40;;;;;;21079052;28;20203;-65
2022/07/01 11:22:33;;;;;;;1.70;1.60;;;18.20;95.80;;;;;;21080107;28;20238;-66
2022/07/01 11:32:37;;;;;;;1.97;1.40;;;18.10;95.80;;;;;;21091385;28;20217;-71
2022/07/01 11:42:39;;;;;;;2.50;1.83;;;17.90;95.70;;;;;;21080120;28;20241;-66
2022/07/01 11:52:46;;;;;;;1.90;1.60;;;17.90;96.30;;;;;;21078154;28;20207;-68
2022/07/01 12:02:51;;;;;;;2.77;1.87;;;18.20;96.40;;;;;;21067098;28;20259;-66
2022/07/01 12:12:53;;;;;;;2.83;1.93;;;18.40;96.30;;;;;;21092936;28;20255;-69
2022/07/01 12:23:11;;;;;;;2.50;1.80;;;18.60;96.10;;;;;;21090399;28;20235;-70
2022/07/01 12:33:12;;;;;;;4.17;2.00;;;18.70;95.80;;;;;;21090533;28;20215;-68
2022/07/01 12:43:28;;;;;;;3.07;1.90;;;19.20;95.60;;;;;;21089683;28;20236;-69
2022/07/01 12:53:30;;;;;;;4.60;1.47;;;19.50;94.60;;;;;;21090054;28;20663;-67
2022/07/01 13:03:31;;;;;;;2.43;1.70;;;19.60;93.60;;;;;;21090470;28;20241;-68
2022/07/01 13:13:39;;;;;;;2.97;1.37;;;19.90;92.00;;;;;;21084048;28;20202;-68
2022/07/01 13:23:40;;;;;;;2.53;1.67;;;20.10;91.40;;;;;;21081782;28;20601;-67
2022/07/01 13:33:44;;;;;;;4.97;2.10;;;20.30;90.60;;;;;;21062777;28;20663;-72
2022/07/01 13:43:46;;;;;;;4.10;1.70;;;20.60;89.60;;;;;;21003391;28;20252;-66
2022/07/01 13:53:47;;;;;;;1.80;1.63;;;20.80;86.30;;;;;;21027299;28;20259;-73
2022/07/01 14:03:50;;;;;;;2.53;1.80;;;20.90;84.50;;;;;;21085298;28;20243;-73
2022/07/01 14:13:52;;;;;;;3.60;1.40;;;20.80;82.50;;;;;;21084150;28;20217;-73
2022/07/01 14:23:53;;;;;;;1.90;1.30;;;21.00;80.60;;;;;;21082101;28;20235;-67
2022/07/01 14:33:56;;;;;;;4.60;1.60;;;21.50;79.80;;;;;;21082688;28;20632;-63
2022/07/01 14:43:58;;;;;;;4.20;2.00;;;21.50;77.80;;;;;;21082442;28;20238;-68
2022/07/01 14:54:00;;;;;;;1.33;1.13;;;21.20;77.10;;;;;;21081036;28;20561;-65
2022/07/01 15:04:02;;;;;;;1.87;1.50;;;21.60;76.70;;;;;;21081647;28;20261;-69
2022/07/01 15:14:03;;;;;;;3.23;1.90;;;21.70;76.50;;;;;;21080688;28;20206;-67
2022/07/01 15:24:05;;;;;;;1.93;1.20;;;21.90;76.80;;;;;;21080691;28;20241;-65
2022/07/01 15:34:08;;;;;;;1.93;1.30;;;22.00;75.40;;;;;;21079718;28;20237;-69
2022/07/01 15:44:10;;;;;;;1.77;1.30;;;21.70;74.20;;;;;;21078688;28;20237;-70
2022/07/01 15:54:11;;;;;;;2.40;1.50;;;21.90;73.00;;;;;;21087982;28;20207;-67
2022/07/01 16:04:13;;;;;;;1.60;1.20;;;22.00;71.60;;;;;;21080661;28;20701;-73
2022/07/01 16:14:19;;;;;;;3.40;2.37;;;22.00;71.10;;;;;;21067585;28;20199;-71
2022/07/01 16:24:21;;;;;;;1.50;1.30;;;21.80;70.00;;;;;;21116110;28;20295;-68
2022/07/01 16:34:23;;;;;;;2.70;1.10;;;21.90;69.30;;;;;;21113478;28;20230;-73
2022/07/01 16:44:44;;;;;;;5.37;1.40;;;22.40;68.30;;;;;;21133716;28;20217;-70
2022/07/01 16:54:57;;;;;;;1.40;1.30;;;22.10;68.10;;;;;;21147245;28;20391;-74
2022/07/01 17:05:02;;;;;;;3.97;1.40;;;21.80;68.30;;;;;;21147241;28;20233;-67
2022/07/01 17:15:04;;;;;;;3.70;1.53;;;21.90;68.90;;;;;;21176408;28;20205;-66
2022/07/01 17:25:10;;;;;;;1.63;1.10;;;22.10;68.30;;;;;;21166990;28;20238;-68
2022/07/01 17:35:16;;;;;;;2.30;1.77;;;22.10;67.10;;;;;;21137630;28;20608;-69
2022/07/01 17:45:21;;;;;;;1.40;1.30;;;22.20;66.80;;;;;;21150714;28;20239;-66
2022/07/01 17:55:25;;;;;;;6.00;1.30;;;22.80;66.20;;;;;;21141092;28;20203;-67
2022/07/01 18:05:32;;;;;;;1.87;1.40;;;22.60;66.20;;;;;;21150934;28;20214;-66
2022/07/01 18:15:35;;;;;;;3.10;1.47;;;22.50;66.70;;;;;;21149052;28;20203;-69
2022/07/01 18:25:40;;;;;;;2.17;1.60;;;22.20;68.40;;;;;;21145080;28;20225;-71
2022/07/01 18:35:45;;;;;;;2.10;1.60;;;22.00;69.00;;;;;;21095781;28;20238;-65
2022/07/01 18:45:46;;;;;;;1.77;1.50;;;21.90;69.30;;;;;;21091354;28;20234;-65
2022/07/01 18:55:48;;;;;;;1.60;1.50;;;21.60;69.80;;;;;;21090420;28;20238;-68
2022/07/01 19:05:50;;;;;;;2.30;1.70;;;21.30;70.70;;;;;;21088053;28;20210;-68
2022/07/01 19:15:51;;;;;;;3.13;1.80;;;21.00;71.90;;;;;;21082708;28;20225;-65
2022/07/01 19:25:53;;;;;;;3.13;1.93;;;20.80;73.50;;;;;;21080790;28;20220;-68
2022/07/01 19:35:55;;;;;;;2.90;1.90;;;20.60;75.00;;;;;;21079527;28;20244;-65
2022/07/01 19:45:59;;;;;;;2.03;1.60;;;20.50;76.00;;;;;;21076776;28;20288;-69
2022/07/01 19:56:01;;;;;;;2.43;1.80;;;20.30;76.90;;;;;;21076464;28;20256;-68
2022/07/01 20:06:03;;;;;;;3.63;1.70;;;20.10;77.60;;;;;;21075637;28;20204;-65
2022/07/01 20:16:05;;;;;;;3.37;1.90;;;20.10;78.30;;;;;;21075642;28;20228;-65
2022/07/01 20:26:07;;;;;;;3.17;1.80;;;20.00;79.00;;;;;;21093068;28;20217;-68
2022/07/01 20:36:10;;;;;;;3.03;2.20;;;19.90;79.80;;;;;;21090795;28;20224;-67
2022/07/01 20:46:12;;;;;;;4.00;2.50;;;19.90;80.40;;;;;;21090540;28;20240;-66
2022/07/01 20:56:15;;;;;;;2.60;2.00;;;19.90;81.00;;;;;;21089164;28;20248;-65
2022/07/01 21:06:21;;;;;;;4.53;2.53;;;19.80;81.90;;;;;;21087843;28;20208;-64
2022/07/01 21:16:26;;;;;;;3.63;2.50;;;19.60;82.80;;;;;;21090008;28;20637;-66
2022/07/01 21:26:30;;;;;;;5.07;3.40;;;19.40;83.80;;;;;;21097723;28;20260;-66
2022/07/01 21:36:32;;;;;;;3.87;3.27;;;19.30;84.70;;;;;;21085700;28;20246;-64
2022/07/01 21:46:36;;;;;;;6.93;2.80;;;19.20;85.10;;;;;;21085817;28;20230;-65
2022/07/01 21:56:40;;;;;;;3.97;2.00;;;19.10;85.20;;;;;;21086628;28;20355;-65
2022/07/01 22:07:03;;;;;;;3.10;2.00;;;19.00;85.50;;;;;;21085702;28;20204;-62
2022/07/01 22:17:04;;;;;;;3.67;2.60;;;18.90;86.40;;;;;;21084710;28;20233;-70
2022/07/01 22:27:07;;;;;;;4.70;3.20;;;18.80;86.90;;;;;;21084011;28;20256;-67
2022/07/01 22:37:10;;;;;;;4.80;2.43;;;18.70;88.00;;;;;;21083399;28;20235;-69
2022/07/01 22:47:13;;;;;;;7.57;2.40;;;18.60;89.40;;;;;;21081412;28;20599;-66
2022/07/01 22:57:54;;;;;;;2.40;2.20;;;18.50;89.90;;;;;;21081608;28;20697;-69
2022/07/01 23:07:58;;;;;;;3.37;2.30;;;18.40;90.10;;;;;;21080940;28;20203;-67
2022/07/01 23:18:02;;;;;;;4.87;2.20;;;18.20;90.20;;;;;;21080080;28;20299;-65
2022/07/01 23:28:04;;;;;;;5.60;2.60;;;18.10;90.60;;;;;;21079911;28;20217;-65
2022/07/01 23:38:10;;;;;;;2.90;2.20;;;18.00;90.70;;;;;;21078614;28;20240;-63
2022/07/01 23:48:19;;;;;;;2.83;2.30;;;17.90;91.00;;;;;;21078457;28;20238;-62
2022/07/01 23:58:21;;;;;;;5.20;2.37;;;17.80;91.30;;;;;;21087189;28;20237;-68
